createdAt,value
2023-02-23T00:02:03.592Z,66.36
2023-02-23T00:04:33.300Z,66.53
2023-02-23T00:07:01.006Z,66.57
2023-02-23T00:09:36.921Z,66.85
2023-02-23T00:12:08.633Z,67.05
2023-02-23T00:14:37.258Z,67.24
2023-02-23T00:17:05.060Z,67.41
2023-02-23T00:19:33.206Z,67.15
2023-02-23T00:22:03.012Z,67.02
2023-02-23T00:24:30.675Z,66.83
2023-02-23T00:27:06.114Z,66.92
2023-02-23T00:29:39.102Z,67.19
2023-02-23T00:32:06.997Z,66.85
2023-02-23T00:34:37.064Z,66.89
2023-02-23T00:37:04.753Z,66.88
2023-02-23T00:39:33.643Z,66.67
2023-02-23T00:42:02.711Z,66.74
2023-02-23T00:44:33.479Z,67.04
2023-02-23T00:47:01.344Z,67.34
2023-02-23T00:49:28.694Z,67.43
2023-02-23T00:51:56.354Z,67.47
2023-02-23T00:54:24.221Z,67.67
2023-02-23T00:56:51.600Z,67.96
2023-02-23T00:59:21.700Z,68.30
2023-02-23T01:01:49.569Z,68.57
2023-02-23T01:04:22.728Z,68.55
2023-02-23T01:06:49.900Z,68.82
2023-02-23T01:09:27.597Z,68.90
2023-02-23T01:11:57.249Z,68.73
2023-02-23T01:14:24.456Z,68.23
2023-02-23T01:16:52.126Z,68.05
2023-02-23T01:19:19.572Z,67.75
2023-02-23T01:21:50.111Z,67.50
2023-02-23T01:24:18.585Z,66.91
2023-02-23T01:26:46.557Z,66.57
2023-02-23T01:29:16.565Z,65.83
2023-02-23T01:31:46.002Z,65.25
2023-02-23T01:34:22.953Z,64.38
2023-02-23T01:36:51.027Z,64.16
2023-02-23T01:39:19.405Z,64.08
2023-02-23T01:41:46.506Z,64.05
2023-02-23T01:44:16.081Z,64.07
2023-02-23T01:46:48.950Z,64.16
2023-02-23T01:49:19.735Z,64.10
2023-02-23T01:51:49.688Z,63.60
2023-02-23T01:54:24.402Z,63.11
2023-02-23T01:56:57.710Z,63.12
2023-02-23T01:59:29.696Z,63.17
2023-02-23T02:01:57.500Z,63.28
2023-02-23T02:04:27.655Z,63.78
2023-02-23T02:07:00.845Z,63.50
2023-02-23T02:09:28.203Z,63.51
2023-02-23T02:11:57.088Z,63.19
2023-02-23T02:14:28.074Z,62.91
2023-02-23T02:17:22.418Z,62.58
2023-02-23T02:19:55.711Z,62.73
2023-02-23T02:23:10.899Z,62.53
2023-02-23T02:26:20.634Z,62.45
2023-02-23T02:29:19.432Z,62.86
2023-02-23T02:31:56.764Z,63.04
2023-02-23T02:34:23.970Z,63.24
2023-02-23T02:37:29.062Z,63.56
2023-02-23T02:40:17.656Z,64.11
2023-02-23T02:42:48.491Z,64.53
2023-02-23T02:45:34.693Z,64.70
2023-02-23T02:48:47.972Z,64.89
2023-02-23T02:51:54.288Z,64.94
2023-02-23T02:54:21.549Z,64.52
2023-02-23T02:56:49.665Z,64.75
2023-02-23T02:59:38.082Z,64.68
2023-02-23T03:02:24.670Z,64.57
2023-02-23T03:05:10.759Z,64.82
2023-02-23T03:08:04.128Z,65.10
2023-02-23T03:11:12.445Z,65.15
2023-02-23T03:14:21.580Z,65.67
2023-02-23T03:17:18.731Z,66.03
2023-02-23T03:20:13.528Z,66.56
2023-02-23T03:23:14.068Z,66.75
2023-02-23T03:26:06.705Z,67.12
2023-02-23T03:29:20.493Z,67.18
2023-02-23T03:32:24.807Z,66.67
2023-02-23T03:35:24.897Z,66.66
2023-02-23T03:38:16.222Z,66.33
2023-02-23T03:41:03.019Z,66.22
2023-02-23T03:43:51.980Z,66.17
2023-02-23T03:46:39.301Z,65.86
2023-02-23T03:49:26.430Z,66.08
2023-02-23T03:52:25.314Z,66.35
2023-02-23T03:55:16.322Z,66.85
2023-02-23T03:58:06.309Z,66.33
2023-02-23T04:00:55.574Z,65.53
2023-02-23T04:03:41.792Z,65.61
2023-02-23T04:06:30.840Z,64.96
2023-02-23T04:09:18.197Z,64.94
2023-02-23T04:12:21.986Z,64.95
2023-02-23T04:14:59.966Z,64.77
2023-02-23T04:17:27.932Z,64.35
2023-02-23T04:19:55.907Z,64.53
2023-02-23T04:22:23.674Z,64.42
2023-02-23T04:24:51.330Z,64.88
2023-02-23T04:27:18.652Z,65.38
2023-02-23T04:29:46.449Z,65.40
2023-02-23T04:32:15.880Z,65.71
2023-02-23T04:34:43.740Z,65.62
2023-02-23T04:37:11.244Z,66.33
2023-02-23T04:39:39.251Z,66.48
2023-02-23T04:42:06.728Z,66.50
2023-02-23T04:44:35.696Z,66.74
2023-02-23T04:47:03.870Z,66.56
2023-02-23T04:49:32.762Z,66.14
2023-02-23T04:52:00.121Z,65.53
2023-02-23T04:54:28.411Z,64.84
2023-02-23T04:56:55.953Z,64.39
2023-02-23T04:59:23.515Z,63.60
2023-02-23T05:01:50.968Z,63.26
2023-02-23T05:04:20.984Z,62.81
2023-02-23T05:06:49.054Z,62.76
2023-02-23T05:09:18.869Z,61.88
2023-02-23T05:11:47.760Z,61.39
2023-02-23T05:14:15.316Z,61.10
2023-02-23T05:16:45.744Z,60.78
2023-02-23T05:19:13.241Z,60.30
2023-02-23T05:21:44.345Z,59.83
2023-02-23T05:24:13.850Z,58.93
2023-02-23T05:26:41.439Z,58.77
2023-02-23T05:29:10.215Z,57.89
2023-02-23T05:31:38.636Z,57.46
2023-02-23T05:34:06.440Z,57.12
2023-02-23T05:36:34.203Z,56.32
2023-02-23T05:39:05.968Z,55.59
2023-02-23T05:41:39.355Z,54.32
2023-02-23T05:44:08.346Z,53.70
2023-02-23T05:46:36.977Z,53.32
2023-02-23T05:49:12.374Z,52.29
2023-02-23T05:51:40.752Z,51.17
2023-02-23T05:54:09.252Z,50.68
2023-02-23T05:56:40.073Z,50.51
2023-02-23T05:59:07.706Z,49.78
2023-02-23T06:01:38.838Z,49.59
2023-02-23T06:04:07.707Z,49.01
2023-02-23T06:06:39.433Z,48.53
2023-02-23T06:09:10.572Z,47.87
2023-02-23T06:11:38.545Z,47.83
2023-02-23T06:14:06.005Z,47.42
2023-02-23T06:16:38.364Z,47.68
2023-02-23T06:19:07.000Z,46.67
2023-02-23T06:21:34.540Z,46.62
2023-02-23T06:24:02.409Z,46.72
2023-02-23T06:26:30.656Z,45.75
2023-02-23T06:28:59.131Z,45.83
2023-02-23T06:31:27.307Z,45.21
2023-02-23T06:33:55.068Z,44.98
2023-02-23T06:36:23.492Z,43.53
2023-02-23T06:38:50.837Z,44.57
2023-02-23T06:41:19.462Z,44.55
2023-02-23T06:43:47.055Z,43.91
2023-02-23T06:46:14.521Z,42.85
2023-02-23T06:48:42.063Z,43.52
2023-02-23T06:51:09.655Z,41.96
2023-02-23T06:53:37.084Z,41.06
2023-02-23T06:56:06.479Z,41.27
2023-02-23T06:58:34.147Z,40.46
2023-02-23T07:01:02.524Z,41.00
2023-02-23T07:03:29.972Z,41.23
2023-02-23T07:05:58.051Z,41.58
2023-02-23T07:08:26.731Z,41.78
2023-02-23T07:10:54.018Z,41.85
2023-02-23T07:13:26.488Z,41.74
2023-02-23T07:15:56.906Z,41.34
2023-02-23T07:18:24.038Z,40.90
2023-02-23T07:20:52.717Z,41.16
2023-02-23T07:23:22.019Z,41.72
2023-02-23T07:25:54.708Z,41.76
2023-02-23T07:28:22.455Z,41.77
2023-02-23T07:30:49.934Z,41.04
2023-02-23T07:33:18.542Z,40.80
2023-02-23T07:35:46.176Z,40.08
2023-02-23T07:38:15.981Z,39.72
2023-02-23T07:40:43.225Z,39.97
2023-02-23T07:43:12.773Z,40.38
2023-02-23T07:45:41.349Z,39.78
2023-02-23T07:48:09.388Z,40.89
2023-02-23T07:50:40.087Z,40.22
2023-02-23T07:53:07.406Z,39.98
2023-02-23T07:55:34.628Z,39.81
2023-02-23T07:58:02.187Z,39.54
2023-02-23T08:00:29.643Z,40.30
2023-02-23T08:02:57.103Z,41.00
2023-02-23T08:05:26.637Z,41.84
2023-02-23T08:07:58.568Z,42.88
2023-02-23T08:10:26.347Z,42.05
2023-02-23T08:12:54.967Z,42.35
2023-02-23T08:15:22.592Z,41.77
2023-02-23T08:17:54.133Z,42.70
2023-02-23T08:20:22.506Z,42.51
2023-02-23T08:22:56.696Z,43.30
2023-02-23T08:25:24.080Z,44.19
2023-02-23T08:27:54.297Z,44.18
2023-02-23T08:30:23.494Z,44.59
2023-02-23T08:32:51.071Z,43.63
2023-02-23T08:35:19.799Z,43.82
2023-02-23T08:37:46.891Z,44.58
2023-02-23T08:40:20.389Z,44.98
2023-02-23T08:42:54.096Z,44.70
2023-02-23T08:45:21.651Z,44.07
2023-02-23T08:48:46.146Z,44.48
2023-02-23T08:51:17.078Z,45.12
2023-02-23T08:53:44.742Z,46.18
2023-02-23T08:56:13.021Z,45.95
2023-02-23T08:58:40.883Z,46.09
2023-02-23T09:01:18.138Z,46.34
2023-02-23T09:03:45.530Z,46.30
2023-02-23T09:06:15.446Z,45.45
2023-02-23T09:08:42.690Z,45.68
2023-02-23T09:11:10.354Z,46.09
2023-02-23T09:13:37.602Z,46.98
2023-02-23T09:16:07.289Z,47.18
2023-02-23T09:18:34.873Z,47.38
2023-02-23T09:21:08.181Z,47.31
2023-02-23T09:23:35.524Z,47.92
2023-02-23T09:26:07.502Z,47.74
2023-02-23T09:28:38.429Z,48.05
2023-02-23T09:31:10.900Z,47.50
2023-02-23T09:33:39.581Z,48.44
2023-02-23T09:36:17.391Z,48.17
2023-02-23T09:38:46.069Z,47.21
2023-02-23T09:41:25.505Z,47.70
2023-02-23T09:44:11.705Z,47.91
2023-02-23T09:47:00.249Z,48.53
2023-02-23T09:49:29.009Z,49.47
2023-02-23T09:51:58.439Z,48.82
2023-02-23T09:54:29.309Z,48.50
2023-02-23T09:56:57.972Z,48.70
2023-02-23T09:59:25.222Z,48.59
2023-02-23T10:02:22.281Z,48.58
2023-02-23T10:04:52.186Z,49.01
2023-02-23T10:07:50.362Z,49.75
2023-02-23T10:10:27.684Z,50.40
2023-02-23T10:13:15.686Z,49.99
2023-02-23T10:15:55.536Z,50.11
2023-02-23T10:18:51.266Z,50.11
2023-02-23T10:21:39.604Z,50.72
2023-02-23T10:24:17.092Z,51.27
2023-02-23T10:26:54.451Z,50.93
2023-02-23T10:29:25.624Z,50.88
2023-02-23T10:32:07.843Z,50.58
2023-02-23T10:34:36.447Z,50.51
2023-02-23T10:37:05.617Z,50.63
2023-02-23T10:39:33.063Z,50.80
2023-02-23T10:42:03.473Z,51.02
2023-02-23T10:44:31.371Z,50.96
2023-02-23T10:47:07.525Z,50.89
2023-02-23T10:49:49.208Z,50.88
2023-02-23T10:52:28.878Z,50.76
2023-02-23T10:54:56.511Z,50.76
2023-02-23T10:57:24.533Z,50.84
2023-02-23T11:00:17.023Z,51.52
2023-02-23T11:02:44.688Z,51.38
2023-02-23T11:05:34.471Z,51.28
2023-02-23T11:08:11.733Z,51.93
2023-02-23T11:10:39.724Z,51.41
2023-02-23T11:13:26.316Z,51.29
2023-02-23T11:16:15.130Z,51.15
2023-02-23T11:18:54.177Z,51.42
2023-02-23T11:21:26.721Z,52.05
2023-02-23T11:23:55.734Z,52.47
2023-02-23T11:26:28.262Z,51.54
2023-02-23T11:29:02.031Z,52.04
2023-02-23T11:31:34.213Z,52.06
2023-02-23T11:34:03.635Z,51.83
2023-02-23T11:36:37.142Z,51.13
2023-02-23T11:39:07.866Z,51.98
2023-02-23T11:41:36.617Z,51.34
2023-02-23T11:44:06.033Z,51.44
2023-02-23T11:46:37.525Z,51.58
2023-02-23T11:49:08.872Z,52.68
2023-02-23T11:51:38.296Z,53.34
2023-02-23T11:54:06.636Z,52.93
2023-02-23T11:56:34.105Z,52.91
2023-02-23T11:59:07.184Z,51.91
2023-02-23T12:01:44.145Z,52.13
2023-02-23T12:04:24.010Z,52.62
2023-02-23T12:07:12.560Z,53.61
2023-02-23T12:09:40.323Z,53.90
2023-02-23T12:12:11.059Z,54.02
2023-02-23T12:14:49.583Z,52.32
2023-02-23T12:17:41.614Z,52.43
2023-02-23T12:20:24.327Z,52.82
2023-02-23T12:22:58.436Z,53.93
2023-02-23T12:25:53.967Z,53.86
2023-02-23T12:28:58.476Z,53.92
2023-02-23T12:31:40.193Z,54.01
2023-02-23T12:34:22.272Z,54.28
2023-02-23T12:36:50.033Z,54.62
2023-02-23T12:39:36.030Z,53.80
2023-02-23T12:42:22.250Z,54.05
2023-02-23T12:44:51.716Z,53.41
2023-02-23T12:47:48.809Z,54.08
2023-02-23T12:50:22.106Z,54.19
2023-02-23T12:53:01.300Z,54.23
2023-02-23T12:55:37.972Z,53.98
2023-02-23T12:58:24.673Z,54.50
2023-02-23T13:01:16.461Z,54.70
2023-02-23T13:03:50.101Z,54.95
2023-02-23T13:06:46.850Z,54.56
2023-02-23T13:09:27.412Z,53.12
2023-02-23T13:12:10.332Z,53.40
2023-02-23T13:14:52.948Z,53.26
2023-02-23T13:17:26.751Z,53.51
2023-02-23T13:19:58.407Z,53.80
2023-02-23T13:22:37.367Z,54.17
2023-02-23T13:25:17.488Z,54.55
2023-02-23T13:27:50.226Z,55.04
2023-02-23T13:30:20.422Z,55.36
2023-02-23T13:32:47.892Z,55.61
2023-02-23T13:35:17.315Z,55.77
2023-02-23T13:37:47.365Z,55.61
2023-02-23T13:40:46.396Z,56.58
2023-02-23T13:43:30.742Z,55.89
2023-02-23T13:46:07.245Z,55.74
2023-02-23T13:48:58.834Z,55.57
2023-02-23T13:51:46.467Z,55.24
2023-02-23T13:54:15.936Z,55.33
2023-02-23T13:56:51.790Z,55.45
2023-02-23T13:59:29.719Z,55.46
2023-02-23T14:01:58.040Z,55.33
2023-02-23T14:04:34.535Z,56.12
2023-02-23T14:07:21.868Z,56.11
2023-02-23T14:10:08.803Z,56.55
2023-02-23T14:12:40.326Z,56.36
2023-02-23T14:15:27.652Z,56.41
2023-02-23T14:17:59.827Z,56.50
2023-02-23T14:20:36.593Z,56.31
2023-02-23T14:23:19.535Z,55.47
2023-02-23T14:26:12.290Z,56.06
2023-02-23T14:28:50.780Z,55.82
2023-02-23T14:31:20.395Z,56.21
2023-02-23T14:33:49.317Z,56.48
2023-02-23T14:36:20.677Z,56.82
2023-02-23T14:39:00.695Z,57.02
2023-02-23T14:41:46.779Z,58.03
2023-02-23T14:44:29.035Z,57.97
2023-02-23T14:47:16.209Z,58.51
2023-02-23T14:49:54.856Z,58.41
2023-02-23T14:52:32.934Z,58.55
2023-02-23T14:55:12.673Z,58.74
2023-02-23T14:57:49.638Z,59.39
2023-02-23T15:00:28.251Z,59.13
2023-02-23T15:03:12.275Z,59.01
2023-02-23T15:05:59.797Z,58.79
2023-02-23T15:08:30.769Z,58.89
2023-02-23T15:11:10.927Z,59.13
2023-02-23T15:13:49.574Z,59.52
2023-02-23T15:16:22.774Z,59.35
2023-02-23T15:18:51.417Z,59.36
2023-02-23T15:21:22.404Z,59.64
2023-02-23T15:48:17.914Z,61.48
2023-02-23T15:50:52.942Z,61.86
2023-02-23T15:53:40.471Z,61.71
2023-02-23T15:56:13.818Z,61.86
2023-02-23T15:58:56.412Z,62.19
2023-02-23T16:01:27.936Z,62.16
2023-02-23T16:04:06.891Z,62.12
2023-02-23T16:07:11.378Z,62.10
2023-02-23T16:09:39.006Z,61.83
2023-02-23T16:12:15.935Z,61.93
2023-02-23T16:14:49.645Z,61.83
2023-02-23T18:04:00.702Z,69.51
2023-02-23T18:06:30.505Z,69.30
2023-02-23T18:08:58.371Z,69.30
2023-02-23T18:11:27.416Z,68.98
2023-02-23T18:13:55.260Z,69.40
2023-02-23T18:16:24.922Z,69.03
2023-02-23T18:18:54.657Z,69.03
2023-02-23T18:21:22.826Z,69.27
2023-02-23T18:23:51.505Z,68.87
2023-02-23T18:26:21.732Z,68.45
2023-02-23T18:28:49.283Z,68.10
2023-02-23T18:31:21.265Z,68.52
2023-02-23T18:33:52.326Z,68.55
2023-02-23T18:36:26.118Z,68.39
2023-02-23T18:38:55.506Z,67.98
2023-02-23T18:41:24.212Z,67.56
2023-02-23T18:43:53.792Z,67.30
2023-02-23T18:46:24.873Z,67.07
2023-02-23T18:48:53.013Z,67.22
2023-02-23T18:51:22.296Z,67.28
2023-02-23T18:53:52.738Z,67.35
2023-02-23T18:56:28.594Z,67.91
2023-02-23T18:58:58.402Z,68.36
2023-02-23T19:01:30.462Z,68.53
2023-02-23T19:04:01.301Z,68.93
2023-02-23T19:06:30.203Z,69.08
2023-02-23T19:08:59.390Z,69.12
2023-02-23T19:11:33.265Z,69.27
2023-02-23T19:14:03.611Z,69.33
2023-02-23T19:16:35.641Z,69.40
2023-02-23T19:19:06.112Z,69.61
2023-02-23T19:21:38.391Z,69.75
2023-02-23T19:24:06.355Z,70.21
2023-02-23T19:26:34.420Z,71.21
2023-02-23T19:29:02.495Z,71.75
2023-02-23T19:31:31.591Z,72.13
2023-02-23T19:34:03.287Z,72.25
2023-02-23T19:36:33.512Z,73.00
2023-02-23T19:39:15.607Z,73.67
2023-02-23T19:41:45.477Z,74.00
2023-02-23T19:44:17.665Z,74.19
2023-02-23T19:46:47.754Z,74.34
2023-02-23T19:49:16.041Z,74.22
2023-02-23T19:51:44.971Z,73.72
2023-02-23T19:54:13.021Z,73.39
2023-02-23T19:56:42.868Z,73.27
2023-02-23T19:59:10.824Z,73.53
2023-02-23T20:01:41.100Z,73.56
2023-02-23T20:04:09.512Z,73.43
2023-02-23T20:06:40.850Z,73.40
2023-02-23T20:09:10.046Z,73.77
2023-02-23T20:11:40.310Z,73.74
2023-02-23T20:14:08.434Z,74.08
2023-02-23T20:16:36.894Z,74.39
2023-02-23T20:19:07.332Z,74.60
2023-02-23T20:21:37.544Z,74.45
2023-02-23T20:24:07.696Z,74.58
2023-02-23T20:26:41.848Z,74.39
2023-02-23T20:29:14.207Z,74.39
2023-02-23T20:31:50.143Z,74.15
2023-02-23T20:34:38.850Z,74.13
2023-02-23T20:37:13.299Z,74.36
2023-02-23T20:39:40.903Z,74.36
2023-02-23T20:42:09.962Z,74.35
2023-02-23T20:44:43.163Z,74.42
2023-02-23T20:47:11.247Z,74.57
2023-02-23T20:49:46.878Z,74.78
2023-02-23T20:52:16.665Z,74.35
2023-02-23T20:54:45.513Z,73.81
2023-02-23T20:57:18.451Z,73.20
2023-02-23T20:59:47.830Z,73.11
2023-02-23T21:02:17.508Z,72.69
2023-02-23T21:04:46.768Z,72.70
2023-02-23T21:07:14.137Z,72.76
2023-02-23T21:09:44.279Z,72.67
2023-02-23T21:12:13.835Z,72.76
2023-02-23T21:14:49.711Z,72.66
2023-02-23T21:17:17.393Z,72.52
2023-02-23T21:19:44.732Z,72.45
2023-02-23T21:22:16.110Z,72.41
2023-02-23T21:24:44.350Z,72.27
2023-02-23T21:27:12.652Z,72.33
2023-02-23T21:37:36.651Z,72.74
2023-02-23T21:40:08.785Z,72.80
2023-02-23T21:42:50.859Z,72.90
2023-02-23T21:45:19.560Z,72.75
2023-02-23T21:47:50.085Z,72.79
2023-02-23T21:50:18.803Z,72.90
2023-02-23T21:52:52.739Z,73.25
2023-02-23T21:55:22.083Z,73.26
2023-02-23T21:57:52.553Z,73.39
2023-02-23T22:00:21.337Z,73.05
2023-02-23T22:02:49.613Z,73.16
2023-02-23T22:05:17.796Z,72.88
2023-02-23T22:07:54.760Z,72.50
2023-02-23T22:10:26.048Z,72.16
2023-02-23T22:13:51.666Z,72.19
2023-02-23T22:16:41.701Z,72.52
2023-02-23T22:19:09.206Z,72.52
2023-02-23T22:21:40.692Z,72.64
2023-02-23T22:24:10.127Z,72.95
2023-02-23T22:26:39.976Z,73.20
2023-02-23T22:29:11.058Z,73.30
2023-02-23T22:31:42.046Z,73.50
2023-02-23T22:34:10.308Z,73.56
2023-02-23T22:36:38.476Z,73.52
2023-02-23T22:39:07.094Z,73.71
2023-02-23T22:41:41.984Z,73.78
2023-02-23T22:44:13.082Z,73.80
2023-02-23T22:46:42.534Z,73.80
2023-02-23T22:49:11.110Z,73.82
2023-02-23T22:51:41.845Z,73.96
2023-02-23T22:54:09.789Z,74.15
2023-02-23T22:56:39.216Z,74.23
2023-02-23T22:59:08.547Z,74.64
2023-02-23T23:01:39.121Z,74.63
2023-02-23T23:04:10.788Z,74.43
2023-02-23T23:06:40.931Z,74.66
2023-02-23T23:09:16.666Z,74.86
2023-02-23T23:11:44.944Z,75.07
2023-02-23T23:14:14.555Z,75.03
2023-02-23T23:16:51.966Z,75.35
2023-02-23T23:19:23.246Z,75.64
2023-02-23T23:22:13.612Z,75.81
2023-02-23T23:24:45.441Z,76.05
2023-02-23T23:27:14.225Z,76.18
2023-02-23T23:29:45.263Z,76.46
2023-02-23T23:32:16.839Z,76.33
2023-02-23T23:34:48.482Z,76.20
2023-02-23T23:37:16.752Z,76.06
2023-02-23T23:39:46.875Z,75.79
2023-02-23T23:42:19.889Z,75.52
2023-02-23T23:44:48.643Z,75.24
2023-02-23T23:47:18.462Z,75.43
2023-02-23T23:49:49.729Z,75.96
2023-02-23T23:52:17.383Z,76.56
2023-02-23T23:54:47.781Z,76.83
2023-02-23T23:57:15.683Z,76.80
2023-02-23T23:59:45.574Z,76.74
